Time;durP1;ratioP1;P1;durP2;ratioP2;P2;SDS_P1;SDS_P2;PMS_P1;PMS_P2;Temp;Humidity;BMP_temperature;BMP_pressure;BME280_temperature;BME280_humidity;BME280_pressure;Samples;Min_cycle;Max_cycle;Signal;HPM_P1;HPM_P2
2022/08/18 00:02:28;;;;;;;13.05;11.05;;;21.50;81.60;;;;;;4991129;28;20023;-67
2022/08/18 00:04:54;;;;;;;9.73;8.73;;;21.50;81.60;;;;;;4991001;28;20525;-65
2022/08/18 00:07:23;;;;;;;10.50;9.43;;;21.60;81.50;;;;;;4997913;28;20026;-67
2022/08/18 00:09:49;;;;;;;12.55;10.65;;;21.50;81.40;;;;;;5010030;28;20018;-67
2022/08/18 00:12:22;;;;;;;12.00;10.70;;;21.50;81.60;;;;;;4990714;28;20030;-68
2022/08/18 00:14:48;;;;;;;10.85;9.75;;;21.50;81.60;;;;;;5000365;28;20018;-66
2022/08/18 00:17:15;;;;;;;11.52;10.32;;;21.40;81.60;;;;;;5010224;28;20049;-66
2022/08/18 00:19:41;;;;;;;10.63;9.45;;;21.40;81.70;;;;;;5010002;28;20493;-67
2022/08/18 00:22:08;;;;;;;11.07;9.75;;;21.40;81.80;;;;;;4992240;28;20027;-67
2022/08/18 00:24:33;;;;;;;12.18;10.88;;;21.40;81.80;;;;;;4988883;28;20022;-68
2022/08/18 00:26:59;;;;;;;11.60;10.02;;;21.30;81.90;;;;;;4989437;28;20027;-65
2022/08/18 00:29:24;;;;;;;14.25;10.95;;;21.30;82.00;;;;;;5006749;28;20057;-66
2022/08/18 00:31:50;;;;;;;12.30;10.95;;;21.30;82.00;;;;;;5010221;28;20105;-66
2022/08/18 00:34:16;;;;;;;12.57;11.23;;;21.30;82.00;;;;;;4992784;28;20028;-67
2022/08/18 00:36:42;;;;;;;10.73;9.45;;;21.30;82.00;;;;;;4989668;28;20102;-66
2022/08/18 00:39:08;;;;;;;12.45;10.27;;;21.30;81.90;;;;;;4993585;28;20109;-67
2022/08/18 00:41:34;;;;;;;12.68;11.27;;;21.30;81.80;;;;;;5004793;28;20073;-66
2022/08/18 00:43:59;;;;;;;11.38;10.00;;;21.30;81.90;;;;;;4994445;28;20054;-66
2022/08/18 00:46:29;;;;;;;12.40;11.18;;;21.30;81.80;;;;;;5009817;28;20030;-66
2022/08/18 00:48:55;;;;;;;11.68;10.20;;;21.30;81.90;;;;;;5013804;28;20136;-66
2022/08/18 00:51:45;;;;;;;13.45;10.88;;;21.30;81.90;;;;;;5013887;28;20385;-67
2022/08/18 00:54:17;;;;;;;14.68;11.80;;;21.30;82.00;;;;;;5011965;28;20026;-67
2022/08/18 00:56:47;;;;;;;11.57;10.38;;;21.20;82.00;;;;;;5013386;28;20050;-67
2022/08/18 00:59:23;;;;;;;12.02;10.15;;;21.20;82.20;;;;;;5005042;28;20548;-68
2022/08/18 01:01:51;;;;;;;10.77;9.65;;;21.00;82.30;;;;;;4992782;28;20022;-67
2022/08/18 01:04:28;;;;;;;10.52;9.43;;;21.00;82.40;;;;;;4993781;28;20118;-66
2022/08/18 01:07:00;;;;;;;9.63;8.55;;;21.00;82.50;;;;;;4999455;28;20026;-66
2022/08/18 01:09:27;;;;;;;9.77;8.77;;;21.00;82.40;;;;;;5012189;28;20087;-67
2022/08/18 01:11:52;;;;;;;10.55;8.60;;;21.00;82.30;;;;;;5013042;28;20073;-68
2022/08/18 01:14:19;;;;;;;10.23;8.35;;;21.00;82.40;;;;;;5012741;28;20358;-67
2022/08/18 01:22:33;;;;;;;8.77;7.88;;;21.10;82.00;;;;;;5007255;28;20076;-68
2022/08/18 01:27:45;;;;;;;9.57;8.10;;;21.10;81.80;;;;;;5011515;28;20068;-66
2022/08/18 01:30:14;;;;;;;9.35;8.38;;;21.00;81.70;;;;;;5013090;28;20014;-68
2022/08/18 01:32:44;;;;;;;8.38;7.40;;;21.00;81.80;;;;;;5012367;28;20088;-67
2022/08/18 01:35:12;;;;;;;8.02;7.22;;;21.00;81.90;;;;;;4999595;28;20018;-66
2022/08/18 01:37:40;;;;;;;9.48;6.95;;;21.00;81.90;;;;;;5010496;28;20030;-66
2022/08/18 01:40:07;;;;;;;9.52;7.45;;;21.00;81.80;;;;;;4993484;28;20034;-67
2022/08/18 01:42:34;;;;;;;8.18;6.70;;;21.00;81.80;;;;;;4995036;28;20030;-67
2022/08/18 01:45:02;;;;;;;8.70;7.07;;;21.00;81.70;;;;;;5010872;28;20022;-67
2022/08/18 01:47:28;;;;;;;10.55;8.13;;;20.90;81.70;;;;;;5012682;28;20484;-67
2022/08/18 01:49:53;;;;;;;7.97;7.18;;;20.90;81.70;;;;;;4997176;28;20026;-66
2022/08/18 01:52:20;;;;;;;8.23;7.20;;;20.90;81.70;;;;;;5006831;28;20021;-67
2022/08/18 01:54:50;;;;;;;7.82;6.97;;;20.90;81.70;;;;;;5012669;28;20408;-67
2022/08/18 01:57:17;;;;;;;6.72;5.97;;;20.90;81.70;;;;;;5012459;28;20022;-68
2022/08/18 01:59:43;;;;;;;8.77;7.32;;;20.90;81.60;;;;;;5011942;28;20029;-67
2022/08/18 02:02:15;;;;;;;8.45;6.95;;;20.90;81.40;;;;;;5011664;28;20026;-68
2022/08/18 02:04:41;;;;;;;;;;;20.90;81.40;;;;;;5008971;28;20034;-67
2022/08/18 02:07:09;;;;;;;7.18;5.95;;;20.90;81.30;;;;;;4992799;28;19906;-67
2022/08/18 02:09:36;;;;;;;6.20;5.50;;;20.80;81.40;;;;;;4992643;28;20137;-68
2022/08/18 02:12:02;;;;;;;6.82;6.13;;;20.80;81.40;;;;;;5010514;28;20071;-68
2022/08/18 02:14:28;;;;;;;6.40;5.50;;;20.80;81.30;;;;;;5011861;28;20843;-67
2022/08/18 02:16:57;;;;;;;7.25;6.10;;;20.80;81.30;;;;;;5001995;28;20027;-68
2022/08/18 02:19:23;;;;;;;6.75;5.68;;;20.80;81.20;;;;;;4992535;28;20030;-68
2022/08/18 02:21:51;;;;;;;6.90;6.10;;;20.80;81.20;;;;;;4992969;28;20093;-68
2022/08/18 02:24:17;;;;;;;6.97;6.03;;;20.80;81.10;;;;;;4991985;28;20022;-68
2022/08/18 02:26:43;;;;;;;7.43;5.88;;;20.70;81.20;;;;;;5005935;28;20018;-67
2022/08/18 02:29:09;;;;;;;6.80;6.13;;;20.70;81.20;;;;;;5012452;28;20048;-68
2022/08/18 02:31:35;;;;;;;7.20;6.50;;;20.70;81.20;;;;;;4994409;28;20022;-68
2022/08/18 02:34:01;;;;;;;6.45;5.85;;;20.70;81.10;;;;;;4991250;28;20022;-68
2022/08/18 02:36:27;;;;;;;6.93;6.20;;;20.70;81.20;;;;;;4991949;28;20064;-68
2022/08/18 02:38:53;;;;;;;6.30;5.70;;;20.70;81.10;;;;;;4992236;28;20122;-68
2022/08/18 02:41:19;;;;;;;6.68;6.00;;;20.80;81.10;;;;;;5003017;28;20471;-68
2022/08/18 02:43:47;;;;;;;7.97;6.78;;;20.70;81.00;;;;;;5009888;28;20575;-68
2022/08/18 02:46:13;;;;;;;6.53;5.75;;;20.70;81.00;;;;;;5011533;28;20488;-68
2022/08/18 02:48:39;;;;;;;7.85;5.95;;;20.70;81.10;;;;;;5010332;28;20420;-70
2022/08/18 02:51:08;;;;;;;7.35;6.38;;;20.70;81.10;;;;;;5011251;28;20030;-68
2022/08/18 02:53:34;;;;;;;6.88;5.93;;;20.70;81.10;;;;;;5011947;28;20076;-68
2022/08/18 02:56:33;;;;;;;6.72;5.90;;;20.70;81.10;;;;;;5011218;28;20026;-68
2022/08/18 02:59:06;;;;;;;7.93;5.85;;;20.70;81.30;;;;;;4982976;28;20069;-69
2022/08/18 03:01:37;;;;;;;6.22;5.63;;;20.70;81.20;;;;;;5003470;28;20636;-68
2022/08/18 03:04:05;;;;;;;6.70;6.00;;;20.70;81.20;;;;;;5010361;28;20443;-69
2022/08/18 03:06:32;;;;;;;8.20;6.32;;;20.70;81.10;;;;;;4991345;28;20289;-69
2022/08/18 03:08:58;;;;;;;6.80;5.85;;;20.70;81.10;;;;;;4991813;28;20105;-68
2022/08/18 03:11:27;;;;;;;6.90;6.13;;;20.80;81.10;;;;;;4991162;28;20122;-68
2022/08/18 03:13:53;;;;;;;6.68;5.57;;;20.70;81.00;;;;;;4991567;28;20034;-68
2022/08/18 03:16:20;;;;;;;6.45;5.78;;;20.80;81.10;;;;;;4991559;28;20034;-69
2022/08/18 03:18:46;;;;;;;6.60;5.90;;;20.80;81.10;;;;;;4991267;28;20026;-69
2022/08/18 03:21:15;;;;;;;6.50;5.72;;;20.80;81.00;;;;;;4999275;28;20080;-68
2022/08/18 03:23:42;;;;;;;7.32;5.70;;;20.80;80.90;;;;;;5010609;28;20026;-67
2022/08/18 03:26:10;;;;;;;5.50;4.93;;;20.80;80.80;;;;;;4993399;28;20026;-68
2022/08/18 03:28:40;;;;;;;5.78;5.07;;;20.80;80.80;;;;;;5010505;28;20018;-67
2022/08/18 03:31:07;;;;;;;5.90;5.25;;;20.90;80.90;;;;;;5003703;28;20029;-67
2022/08/18 03:33:33;;;;;;;7.40;5.85;;;20.90;80.70;;;;;;5000215;28;20064;-67
2022/08/18 03:36:06;;;;;;;7.10;5.10;;;21.00;80.60;;;;;;5010731;28;20029;-67
2022/08/18 03:38:32;;;;;;;6.78;5.63;;;21.00;80.50;;;;;;5004186;28;20030;-68
2022/08/18 03:40:58;;;;;;;7.47;5.72;;;21.00;80.50;;;;;;5010681;28;20026;-68
2022/08/18 03:43:23;;;;;;;7.55;5.85;;;21.00;80.40;;;;;;5002433;28;20041;-67
2022/08/18 03:45:49;;;;;;;6.35;5.35;;;21.00;80.40;;;;;;4991247;28;20117;-67
2022/08/18 03:48:15;;;;;;;6.70;5.30;;;21.00;80.40;;;;;;4990664;28;20105;-67
2022/08/18 03:50:41;;;;;;;8.35;6.00;;;21.00;80.30;;;;;;4990792;28;20019;-68
2022/08/18 03:53:06;;;;;;;6.32;5.32;;;21.00;80.30;;;;;;5007814;28;20034;-66
2022/08/18 03:55:32;;;;;;;6.75;5.43;;;21.00;80.30;;;;;;4997376;28;20537;-67
2022/08/18 03:58:01;;;;;;;5.47;4.95;;;21.00;80.30;;;;;;5002246;28;20033;-68
2022/08/18 04:00:29;;;;;;;6.07;5.25;;;21.00;80.30;;;;;;5005605;28;20022;-68
2022/08/18 04:02:55;;;;;;;6.97;6.28;;;21.00;80.30;;;;;;5009964;28;20022;-67
2022/08/18 04:05:20;;;;;;;6.90;5.75;;;21.00;80.30;;;;;;5010169;28;20030;-67
2022/08/18 04:07:46;;;;;;;6.25;5.20;;;21.00;80.30;;;;;;5009646;28;20028;-67
2022/08/18 04:10:11;;;;;;;5.13;4.63;;;21.00;80.30;;;;;;5008442;28;20117;-66
2022/08/18 04:12:39;;;;;;;5.60;4.45;;;21.00;80.40;;;;;;4992910;28;20076;-66
2022/08/18 04:15:05;;;;;;;5.13;4.57;;;20.90;80.40;;;;;;4998014;28;20034;-69
2022/08/18 04:17:31;;;;;;;5.70;5.03;;;20.80;80.40;;;;;;4997294;28;20018;-69
2022/08/18 04:19:57;;;;;;;7.10;5.50;;;20.80;80.50;;;;;;4997341;28;20022;-68
2022/08/18 04:22:24;;;;;;;6.22;5.63;;;20.80;80.60;;;;;;5007168;28;20034;-69
2022/08/18 04:24:50;;;;;;;5.45;4.75;;;20.80;80.50;;;;;;5001672;28;20712;-67
2022/08/18 04:27:16;;;;;;;7.32;5.05;;;20.80;80.60;;;;;;4998933;28;20101;-67
2022/08/18 04:29:42;;;;;;;5.95;5.28;;;20.80;80.70;;;;;;5016838;28;20026;-67
2022/08/18 04:32:08;;;;;;;6.47;5.20;;;20.70;80.70;;;;;;5016735;28;20358;-67
2022/08/18 04:34:33;;;;;;;6.72;4.95;;;20.70;80.80;;;;;;5016285;28;20022;-67
2022/08/18 04:37:00;;;;;;;5.80;5.20;;;20.70;80.80;;;;;;5016899;28;20025;-67
2022/08/18 04:39:25;;;;;;;5.53;4.40;;;20.80;80.80;;;;;;5016037;28;20025;-68
2022/08/18 04:41:51;;;;;;;6.07;4.68;;;20.80;80.70;;;;;;5007448;28;20401;-67
2022/08/18 04:44:18;;;;;;;6.28;4.75;;;20.70;80.70;;;;;;4998427;28;20018;-67
2022/08/18 04:46:47;;;;;;;6.57;5.53;;;20.80;80.80;;;;;;5016957;28;20026;-68
2022/08/18 04:49:13;;;;;;;6.43;5.00;;;20.70;80.80;;;;;;5016892;28;20053;-68
2022/08/18 04:53:43;;;;;;;8.68;5.57;;;20.80;80.80;;;;;;5008825;28;20049;-68
2022/08/18 04:54:38;;;;;;;5.90;4.80;;;20.80;80.80;;;;;;4997423;28;20552;-67
2022/08/18 04:57:13;;;;;;;5.57;4.30;;;20.80;80.80;;;;;;5016516;28;20424;-68
2022/08/18 04:59:40;;;;;;;6.70;5.28;;;20.80;80.80;;;;;;5016588;28;20044;-68
2022/08/18 05:02:07;;;;;;;6.55;4.80;;;20.80;80.90;;;;;;5016387;28;20025;-68
2022/08/18 05:04:36;;;;;;;7.78;6.15;;;20.80;80.90;;;;;;5014906;28;20105;-67
2022/08/18 05:07:04;;;;;;;6.70;5.70;;;20.80;80.80;;;;;;4996938;28;20640;-67
2022/08/18 05:09:30;;;;;;;6.75;6.05;;;20.80;80.80;;;;;;5006632;28;20030;-68
2022/08/18 05:11:55;;;;;;;5.93;5.32;;;20.80;80.90;;;;;;5016404;28;20477;-68
2022/08/18 05:14:21;;;;;;;8.05;6.78;;;20.80;80.90;;;;;;5016050;28;20030;-69
2022/08/18 05:16:48;;;;;;;10.20;7.35;;;20.80;80.90;;;;;;5007283;28;20065;-68
2022/08/18 05:19:14;;;;;;;8.85;6.75;;;20.90;81.00;;;;;;4997679;28;20057;-68
2022/08/18 05:21:40;;;;;;;8.35;7.13;;;20.80;81.00;;;;;;4997004;28;20035;-69
2022/08/18 05:24:08;;;;;;;8.57;7.68;;;20.80;81.00;;;;;;4995666;28;20025;-68
2022/08/18 05:26:34;;;;;;;8.15;6.80;;;20.80;81.30;;;;;;4993277;28;20041;-68
2022/08/18 05:29:00;;;;;;;9.00;7.70;;;20.70;81.50;;;;;;5004901;28;20026;-67
2022/08/18 05:31:27;;;;;;;8.20;7.25;;;20.70;81.70;;;;;;4995093;28;20110;-68
2022/08/18 05:33:54;;;;;;;7.68;6.88;;;20.70;81.90;;;;;;4992280;28;20418;-68
2022/08/18 05:36:23;;;;;;;8.88;7.80;;;20.60;81.90;;;;;;4994123;28;20076;-69
2022/08/18 05:39:03;;;;;;;8.60;6.47;;;20.60;82.00;;;;;;5002118;28;20034;-68
2022/08/18 05:41:45;;;;;;;7.53;6.63;;;20.60;82.10;;;;;;5009812;28;20681;-69
2022/08/18 05:44:18;;;;;;;9.77;7.50;;;20.60;82.10;;;;;;4998250;28;20022;-68
2022/08/18 05:46:57;;;;;;;8.80;6.95;;;20.70;82.00;;;;;;5012767;28;20069;-68
2022/08/18 05:49:25;;;;;;;8.98;5.78;;;20.90;82.00;;;;;;5011055;28;20025;-68
2022/08/18 05:51:58;;;;;;;6.90;5.78;;;21.50;80.90;;;;;;5012532;28;20562;-69
2022/08/18 05:57:20;;;;;;;7.93;5.30;;;22.30;78.00;;;;;;5011228;28;20451;-68
2022/08/18 05:59:46;;;;;;;7.68;5.43;;;22.30;77.40;;;;;;5012370;28;20030;-67
2022/08/18 06:02:22;;;;;;;7.60;5.47;;;22.20;77.50;;;;;;5009069;28;20527;-68
2022/08/18 06:04:50;;;;;;;5.50;5.00;;;22.00;77.90;;;;;;5009699;28;20026;-68
2022/08/18 06:07:26;;;;;;;8.05;5.28;;;21.90;78.40;;;;;;5012192;28;20087;-68
2022/08/18 06:09:53;;;;;;;7.90;5.63;;;21.70;79.00;;;;;;4996736;28;20489;-69
2022/08/18 06:12:40;;;;;;;5.90;4.63;;;21.60;79.30;;;;;;4992562;28;20068;-68
2022/08/18 06:15:34;;;;;;;13.23;10.65;;;21.50;79.70;;;;;;4992905;28;20022;-66
2022/08/18 06:18:26;;;;;;;7.47;6.13;;;21.50;80.00;;;;;;4991210;28;20061;-66
2022/08/18 06:21:15;;;;;;;6.28;5.07;;;21.50;80.20;;;;;;5006229;28;20501;-67
2022/08/18 06:23:47;;;;;;;7.43;5.00;;;21.50;80.10;;;;;;5001441;28;20477;-67
2022/08/18 06:26:23;;;;;;;;;;;21.50;80.00;;;;;;4999890;28;20054;-67
2022/08/18 06:29:21;;;;;;;9.55;6.80;;;21.50;80.00;;;;;;5000298;28;19959;-67
2022/08/18 06:32:28;;;;;;;7.03;5.78;;;21.50;80.30;;;;;;5000866;28;20019;-67
2022/08/18 06:35:02;;;;;;;7.07;5.15;;;21.60;80.00;;;;;;5002609;28;20721;-68
2022/08/18 06:40:28;;;;;;;6.45;4.40;;;21.70;79.60;;;;;;5001396;28;20073;-67
2022/08/18 06:42:54;;;;;;;5.45;4.15;;;21.80;79.30;;;;;;5002409;28;20058;-68
2022/08/18 06:45:27;;;;;;;5.45;3.85;;;21.80;79.30;;;;;;5000712;28;20028;-66
2022/08/18 06:48:13;;;;;;;5.55;4.05;;;22.10;78.90;;;;;;5001629;28;20056;-66
2022/08/18 06:51:06;;;;;;;6.03;4.28;;;22.20;78.10;;;;;;5000442;28;20385;-66
2022/08/18 06:54:17;;;;;;;5.70;4.22;;;22.30;77.90;;;;;;5002416;28;20523;-66
2022/08/18 06:56:42;;;;;;;6.60;4.65;;;22.30;77.90;;;;;;5004439;28;20121;-66
2022/08/18 06:59:22;;;;;;;7.13;4.63;;;22.80;77.00;;;;;;5009547;28;20026;-67
2022/08/18 07:02:22;;;;;;;5.72;4.05;;;23.00;75.90;;;;;;5011279;28;20030;-67
2022/08/18 07:05:22;;;;;;;5.93;4.57;;;23.00;76.00;;;;;;4988117;28;20066;-67
2022/08/18 07:08:13;;;;;;;6.70;4.60;;;24.60;72.50;;;;;;5000001;28;20073;-68
2022/08/18 07:10:45;;;;;;;5.13;4.27;;;26.40;68.10;;;;;;5000463;28;20037;-67
2022/08/18 07:13:21;;;;;;;;;;;27.70;64.90;;;;;;5002439;28;20046;-67
2022/08/18 07:15:48;;;;;;;5.25;4.40;;;28.60;62.80;;;;;;5003053;28;19917;-66
2022/08/18 07:18:22;;;;;;;4.25;3.15;;;28.90;60.60;;;;;;5001545;28;20022;-68
2022/08/18 07:20:54;;;;;;;5.07;3.85;;;29.50;59.50;;;;;;5003837;28;20030;-66
2022/08/18 07:23:24;;;;;;;5.07;3.75;;;29.90;58.50;;;;;;5000568;28;20129;-66
2022/08/18 07:25:58;;;;;;;6.20;3.50;;;30.20;57.50;;;;;;4999764;28;20026;-67
2022/08/18 07:28:32;;;;;;;3.78;3.10;;;30.70;56.50;;;;;;5006453;28;20029;-67
2022/08/18 07:31:18;;;;;;;4.50;3.40;;;31.20;55.80;;;;;;5007615;28;20052;-68
2022/08/18 07:33:55;;;;;;;4.82;3.20;;;31.80;54.60;;;;;;5008243;28;20029;-68
2022/08/18 07:36:24;;;;;;;4.65;3.47;;;32.10;53.70;;;;;;5003481;28;20066;-67
2022/08/18 07:39:14;;;;;;;4.28;3.65;;;32.30;53.10;;;;;;5005025;28;20647;-67
2022/08/18 07:41:45;;;;;;;3.20;2.83;;;32.50;52.30;;;;;;5002115;28;20030;-66
2022/08/18 07:44:23;;;;;;;4.45;2.95;;;32.70;52.10;;;;;;5002861;28;20041;-67
2022/08/18 07:47:02;;;;;;;4.78;2.83;;;33.10;51.60;;;;;;5002794;28;20062;-68
2022/08/18 07:49:32;;;;;;;3.75;2.85;;;31.90;52.10;;;;;;5000062;28;20034;-67
2022/08/18 07:52:20;;;;;;;4.45;2.80;;;30.40;54.70;;;;;;4999779;28;20100;-66
2022/08/18 07:54:57;;;;;;;3.28;2.15;;;29.50;56.10;;;;;;4999785;28;20393;-67
2022/08/18 07:57:29;;;;;;;4.22;2.75;;;28.30;58.60;;;;;;4999598;28;20025;-66
2022/08/18 08:00:11;;;;;;;3.13;2.45;;;28.90;58.50;;;;;;4997601;28;20074;-66
2022/08/18 08:02:59;;;;;;;3.95;2.30;;;30.20;55.90;;;;;;4998670;28;20034;-67
2022/08/18 08:05:47;;;;;;;3.47;2.50;;;30.80;54.10;;;;;;4999012;28;20594;-67
2022/08/18 08:08:28;;;;;;;2.70;2.22;;;30.90;53.60;;;;;;4999142;28;20026;-66
2022/08/18 08:11:02;;;;;;;2.60;2.40;;;31.00;53.30;;;;;;5001062;28;20022;-66
2022/08/18 08:13:31;;;;;;;3.75;2.83;;;31.20;53.00;;;;;;4999889;28;20062;-66
2022/08/18 08:16:08;;;;;;;2.90;2.10;;;31.10;52.50;;;;;;4999971;28;20022;-66
2022/08/18 08:18:58;;;;;;;3.40;2.40;;;30.80;53.50;;;;;;4999594;28;20036;-66
2022/08/18 08:21:27;;;;;;;3.63;2.60;;;30.40;54.00;;;;;;5000763;28;20437;-66
2022/08/18 08:24:24;;;;;;;3.17;2.55;;;29.60;54.50;;;;;;5001831;28;20100;-66
2022/08/18 08:27:08;;;;;;;2.80;2.40;;;28.60;55.90;;;;;;5000061;28;20501;-67
2022/08/18 08:29:52;;;;;;;3.20;2.10;;;27.70;57.10;;;;;;5000444;28;20740;-66
2022/08/18 08:32:36;;;;;;;2.95;2.38;;;27.10;59.00;;;;;;5000366;28;20413;-66
2022/08/18 08:35:13;;;;;;;3.17;2.50;;;27.10;59.50;;;;;;4999372;28;20086;-66
2022/08/18 08:37:50;;;;;;;3.10;2.30;;;27.00;59.60;;;;;;5002786;28;20063;-66
2022/08/18 08:40:25;;;;;;;3.50;2.38;;;26.90;60.20;;;;;;5003087;28;20026;-66
2022/08/18 08:42:57;;;;;;;3.13;2.60;;;26.90;60.40;;;;;;5005627;28;20034;-66
2022/08/18 08:45:25;;;;;;;2.20;1.92;;;26.70;60.40;;;;;;5004947;28;20404;-66
2022/08/18 08:47:59;;;;;;;2.55;2.08;;;26.80;60.70;;;;;;5007140;28;20018;-66
2022/08/18 08:50:33;;;;;;;2.63;2.05;;;26.90;60.50;;;;;;5008908;28;20030;-67
2022/08/18 08:53:18;;;;;;;3.00;2.15;;;26.90;60.20;;;;;;5007423;28;20030;-66
2022/08/18 08:55:48;;;;;;;3.08;2.20;;;26.60;60.00;;;;;;5004959;28;20440;-66
2022/08/18 08:58:30;;;;;;;2.95;2.35;;;26.40;60.70;;;;;;5004680;28;20055;-66
2022/08/18 09:00:56;;;;;;;;;;;26.30;61.20;;;;;;5009833;28;20045;-67
2022/08/18 09:03:37;;;;;;;3.67;2.20;;;26.40;61.30;;;;;;5011023;28;19941;-67
2022/08/18 09:06:12;;;;;;;3.67;2.40;;;26.30;61.30;;;;;;5011452;28;20033;-66
2022/08/18 09:09:10;;;;;;;2.65;2.20;;;26.40;61.20;;;;;;5009818;28;20114;-66
2022/08/18 09:12:18;;;;;;;2.88;2.47;;;26.60;61.00;;;;;;5010564;28;20029;-68
2022/08/18 09:14:56;;;;;;;3.35;2.35;;;26.50;61.10;;;;;;5011439;28;20033;-67
2022/08/18 09:17:23;;;;;;;2.40;2.20;;;26.50;61.50;;;;;;5015636;28;20029;-66
2022/08/18 09:20:07;;;;;;;2.10;1.80;;;26.40;61.70;;;;;;5009990;28;20018;-66
2022/08/18 09:22:47;;;;;;;2.60;2.25;;;26.40;61.80;;;;;;5011528;28;20552;-67
2022/08/18 09:25:36;;;;;;;4.15;2.53;;;26.50;61.70;;;;;;5012846;28;20029;-67
2022/08/18 09:28:16;;;;;;;3.05;2.67;;;26.60;61.10;;;;;;5010082;28;20042;-66
2022/08/18 09:31:12;;;;;;;3.22;2.30;;;26.60;60.00;;;;;;5010625;28;20026;-66
2022/08/18 09:33:44;;;;;;;3.17;2.60;;;26.70;60.00;;;;;;5008431;28;20397;-66
2022/08/18 09:36:28;;;;;;;;;;;26.30;58.80;;;;;;5009708;28;20048;-66
2022/08/18 09:41:53;;;;;;;3.60;2.35;;;25.90;60.10;;;;;;5016441;28;20562;-67
2022/08/18 09:44:47;;;;;;;2.38;1.85;;;25.90;60.50;;;;;;5030061;28;20026;-67
2022/08/18 09:47:24;;;;;;;2.60;2.05;;;26.00;60.70;;;;;;5007905;28;20042;-66
2022/08/18 09:49:52;;;;;;;2.78;2.33;;;26.00;60.70;;;;;;5007978;28;20022;-66
2022/08/18 09:52:27;;;;;;;4.43;2.70;;;26.00;60.60;;;;;;5006173;28;20026;-67
2022/08/18 09:54:55;;;;;;;2.60;2.03;;;26.00;60.40;;;;;;5005936;28;20466;-67
2022/08/18 09:57:26;;;;;;;3.22;2.17;;;26.10;60.50;;;;;;5017608;28;20025;-66
2022/08/18 10:00:03;;;;;;;2.85;1.92;;;26.10;60.30;;;;;;5004459;28;20582;-67
2022/08/18 10:02:28;;;;;;;3.45;2.50;;;26.30;60.40;;;;;;4999506;28;20026;-66
2022/08/18 10:05:16;;;;;;;2.95;2.38;;;26.30;60.00;;;;;;5004612;28;21241;-67
2022/08/18 10:07:52;;;;;;;3.10;2.20;;;26.50;59.90;;;;;;5004295;28;20093;-66
2022/08/18 10:10:38;;;;;;;4.97;2.70;;;26.60;59.30;;;;;;5003295;28;20025;-66
2022/08/18 10:13:37;;;;;;;3.55;2.10;;;26.40;58.70;;;;;;5002577;28;20443;-67
2022/08/18 10:16:31;;;;;;;2.85;1.73;;;26.40;59.40;;;;;;5004923;28;20037;-66
2022/08/18 10:19:03;;;;;;;3.03;2.30;;;26.50;59.60;;;;;;5002588;28;20022;-66
2022/08/18 10:21:57;;;;;;;2.20;1.90;;;26.50;59.20;;;;;;4999979;28;20054;-66
2022/08/18 10:24:34;;;;;;;2.50;1.95;;;26.40;59.40;;;;;;5005789;28;20033;-67
2022/08/18 10:27:07;;;;;;;1.92;1.80;;;26.50;59.30;;;;;;5008626;28;20150;-66
2022/08/18 10:29:48;;;;;;;4.13;2.17;;;26.50;59.50;;;;;;5005142;28;20026;-67
2022/08/18 10:32:14;;;;;;;2.42;2.17;;;26.30;58.70;;;;;;5007979;28;20018;-67
2022/08/18 10:34:44;;;;;;;2.47;2.17;;;26.10;59.20;;;;;;5005752;28;20370;-67
2022/08/18 10:37:36;;;;;;;3.10;2.10;;;26.10;59.30;;;;;;5006202;28;20131;-68
2022/08/18 10:40:15;;;;;;;2.60;2.20;;;26.30;59.50;;;;;;5006333;28;20150;-67
2022/08/18 10:42:52;;;;;;;3.45;2.50;;;26.50;59.40;;;;;;5009473;28;20057;-67
2022/08/18 10:45:24;;;;;;;3.78;2.80;;;26.80;59.20;;;;;;5005877;28;20404;-68
2022/08/18 10:48:22;;;;;;;4.88;2.67;;;26.80;58.10;;;;;;5007782;28;20096;-67
2022/08/18 10:51:03;;;;;;;2.97;2.30;;;26.70;57.90;;;;;;5005277;28;20031;-67
2022/08/18 10:53:43;;;;;;;2.90;2.20;;;26.60;58.10;;;;;;5006854;28;20104;-67
2022/08/18 10:56:32;;;;;;;2.53;2.17;;;26.60;58.30;;;;;;5001291;28;20543;-67
2022/08/18 10:59:16;;;;;;;3.35;2.75;;;26.50;58.40;;;;;;5010950;28;20101;-68
2022/08/18 11:02:04;;;;;;;2.85;2.53;;;26.40;58.60;;;;;;5007153;28;20030;-67
2022/08/18 11:04:36;;;;;;;4.20;3.05;;;26.40;58.90;;;;;;5006602;28;20392;-68
2022/08/18 11:07:04;;;;;;;3.08;2.70;;;26.20;59.00;;;;;;5002974;28;20045;-67
2022/08/18 11:09:31;;;;;;;2.90;2.60;;;26.10;59.50;;;;;;5009247;28;20057;-67
2022/08/18 11:11:58;;;;;;;3.30;2.80;;;25.90;59.90;;;;;;5009037;28;20093;-67
2022/08/18 11:14:52;;;;;;;2.90;2.60;;;25.90;60.00;;;;;;5007595;28;20014;-67
2022/08/18 11:17:51;;;;;;;2.78;2.50;;;25.80;60.20;;;;;;5008239;28;20026;-67
2022/08/18 11:20:21;;;;;;;4.10;2.63;;;25.90;60.40;;;;;;5008434;28;20403;-67
2022/08/18 11:22:55;;;;;;;3.78;2.80;;;25.90;60.50;;;;;;5006936;28;20064;-67
2022/08/18 11:25:25;;;;;;;2.78;2.45;;;26.00;60.60;;;;;;5005163;28;20041;-67
2022/08/18 11:27:52;;;;;;;3.90;2.70;;;26.00;60.60;;;;;;5002429;28;20033;-67
2022/08/18 11:30:19;;;;;;;4.25;3.08;;;26.10;60.60;;;;;;5004141;28;20021;-67
2022/08/18 11:32:45;;;;;;;3.45;2.65;;;26.00;60.40;;;;;;5002671;28;20065;-67
2022/08/18 11:35:44;;;;;;;3.80;2.80;;;26.00;60.60;;;;;;5007393;28;20068;-67
2022/08/18 11:38:12;;;;;;;2.47;2.28;;;26.10;60.60;;;;;;5006078;28;20079;-67
2022/08/18 11:40:44;;;;;;;2.90;2.50;;;26.10;60.60;;;;;;5004512;28;20037;-66
2022/08/18 11:43:24;;;;;;;2.70;2.40;;;26.10;60.50;;;;;;5008380;28;20025;-66
2022/08/18 11:45:53;;;;;;;4.57;2.50;;;26.20;60.30;;;;;;5007487;28;20501;-67
2022/08/18 11:48:43;;;;;;;3.00;2.70;;;26.40;60.20;;;;;;5009504;28;20101;-67
2022/08/18 11:51:26;;;;;;;4.22;2.90;;;26.30;59.70;;;;;;5003534;28;20667;-67
2022/08/18 11:54:13;;;;;;;4.80;2.78;;;26.20;59.40;;;;;;5006939;28;20488;-66
2022/08/18 11:56:39;;;;;;;4.22;3.00;;;26.10;59.80;;;;;;5006572;28;20480;-66
2022/08/18 11:59:24;;;;;;;4.45;2.80;;;26.10;59.90;;;;;;5002575;28;20057;-66
2022/08/18 12:01:54;;;;;;;3.72;2.80;;;26.10;59.80;;;;;;5004686;28;20439;-65
2022/08/18 12:04:27;;;;;;;3.97;2.90;;;26.00;60.00;;;;;;5008171;28;20030;-66
2022/08/18 12:07:13;;;;;;;3.25;2.40;;;26.00;60.20;;;;;;5011114;28;20424;-66
2022/08/18 12:10:11;;;;;;;3.03;2.70;;;26.00;60.10;;;;;;5006081;28;20490;-66
2022/08/18 12:12:49;;;;;;;3.92;3.05;;;25.90;59.80;;;;;;5002350;28;20034;-66
2022/08/18 12:15:15;;;;;;;3.72;2.60;;;25.90;60.00;;;;;;5006260;28;20053;-66
2022/08/18 12:17:44;;;;;;;2.92;2.60;;;25.90;60.10;;;;;;5012144;28;20057;-66
2022/08/18 12:20:10;;;;;;;3.13;2.20;;;25.90;60.20;;;;;;5007437;28;20119;-66
2022/08/18 12:22:38;;;;;;;2.50;2.20;;;26.00;60.20;;;;;;5007691;28;20033;-67
2022/08/18 12:25:08;;;;;;;2.60;2.40;;;26.10;60.00;;;;;;5007397;28;20505;-66
2022/08/18 12:27:34;;;;;;;5.75;4.90;;;26.10;59.90;;;;;;5007329;28;20026;-66
2022/08/18 12:30:00;;;;;;;3.97;3.30;;;26.10;59.60;;;;;;5008962;28;20022;-67
2022/08/18 12:32:29;;;;;;;2.58;2.35;;;26.20;60.20;;;;;;5006646;28;20037;-66
2022/08/18 12:34:55;;;;;;;3.08;2.70;;;26.30;59.40;;;;;;5010558;28;20034;-67
2022/08/18 12:37:23;;;;;;;3.53;2.85;;;26.30;59.30;;;;;;5013130;28;20064;-65
2022/08/18 12:39:50;;;;;;;3.05;2.33;;;26.30;59.30;;;;;;5011280;28;20083;-66
2022/08/18 12:42:16;;;;;;;2.90;2.40;;;26.40;59.10;;;;;;5009599;28;20033;-66
2022/08/18 12:44:42;;;;;;;2.30;2.10;;;26.50;59.20;;;;;;5012340;28;20030;-66
2022/08/18 12:47:13;;;;;;;5.03;2.25;;;26.50;59.10;;;;;;5012088;28;20022;-66
2022/08/18 12:49:38;;;;;;;2.33;2.10;;;26.60;59.00;;;;;;5008809;28;20029;-66
2022/08/18 12:52:05;;;;;;;3.33;2.45;;;26.60;59.00;;;;;;5010353;28;20022;-66
2022/08/18 12:54:31;;;;;;;4.57;2.40;;;26.50;58.90;;;;;;5014340;28;20022;-66
2022/08/18 12:56:57;;;;;;;2.38;2.17;;;26.50;59.10;;;;;;5007470;28;20030;-65
2022/08/18 12:59:24;;;;;;;2.55;2.15;;;26.50;59.40;;;;;;5007862;28;20044;-66
2022/08/18 13:01:51;;;;;;;4.13;2.38;;;26.40;59.60;;;;;;5011176;28;20026;-66
2022/08/18 13:04:16;;;;;;;2.40;2.20;;;26.40;60.00;;;;;;5010445;28;20048;-66
2022/08/18 13:06:48;;;;;;;2.55;2.10;;;26.30;60.20;;;;;;5009467;28;20026;-65
2022/08/18 13:09:14;;;;;;;2.88;2.13;;;26.30;60.10;;;;;;5012140;28;20022;-66
2022/08/18 13:11:40;;;;;;;2.83;2.20;;;26.30;60.30;;;;;;5008441;28;20546;-66
2022/08/18 13:14:06;;;;;;;2.42;2.13;;;26.30;60.20;;;;;;5008224;28;20025;-67
2022/08/18 13:16:35;;;;;;;2.63;2.00;;;26.30;60.20;;;;;;5008676;28;20033;-66
2022/08/18 13:19:01;;;;;;;2.28;2.05;;;26.30;60.30;;;;;;5013410;28;20179;-66
2022/08/18 13:21:26;;;;;;;2.47;2.13;;;26.30;60.30;;;;;;5012006;28;20120;-67
2022/08/18 13:23:52;;;;;;;4.55;2.78;;;26.20;60.40;;;;;;5009153;28;20045;-66
2022/08/18 13:26:27;;;;;;;3.40;2.65;;;26.10;60.60;;;;;;5010161;28;20033;-66
2022/08/18 13:28:52;;;;;;;2.53;2.30;;;26.00;60.70;;;;;;5009208;28;20030;-67
2022/08/18 13:31:18;;;;;;;2.92;2.63;;;25.90;61.10;;;;;;5008399;28;20026;-67
2022/08/18 13:33:43;;;;;;;3.80;2.50;;;25.90;61.00;;;;;;5011492;28;20041;-65